createdAt,value
2016-09-18T00:00:06.937Z,0
2016-09-18T00:01:06.909Z,0
2016-09-18T00:02:06.898Z,0
2016-09-18T00:03:06.868Z,0
2016-09-18T00:04:06.851Z,0
2016-09-18T00:05:06.833Z,0
2016-09-18T00:06:06.813Z,0
2016-09-18T00:07:07.101Z,0
2016-09-18T00:08:06.763Z,0
2016-09-18T00:09:06.756Z,0
2016-09-18T00:10:06.732Z,0
2016-09-18T00:11:06.706Z,0
2016-09-18T00:12:06.691Z,0
2016-09-18T00:13:06.668Z,0
2016-09-18T00:14:06.645Z,0
2016-09-18T00:15:06.623Z,0
2016-09-18T00:16:06.604Z,0
2016-09-18T00:17:06.584Z,0
2016-09-18T00:18:06.564Z,0
2016-09-18T00:19:06.545Z,0
2016-09-18T00:20:06.524Z,0
2016-09-18T00:21:06.503Z,0
2016-09-18T00:22:06.482Z,0
2016-09-18T00:23:06.461Z,0
2016-09-18T00:24:06.438Z,0
2016-09-18T00:25:06.420Z,0
2016-09-18T00:26:06.400Z,0
2016-09-18T00:27:06.379Z,0
2016-09-18T00:28:06.359Z,0
2016-09-18T00:29:06.335Z,0
2016-09-18T00:30:06.322Z,0
2016-09-18T00:31:06.291Z,0
2016-09-18T00:32:06.278Z,0
2016-09-18T00:33:06.265Z,0
2016-09-18T00:34:06.241Z,0
2016-09-18T00:35:06.264Z,0
2016-09-18T00:36:06.192Z,0
2016-09-18T00:37:06.470Z,0
2016-09-18T00:38:06.158Z,0
2016-09-18T00:39:06.139Z,0
2016-09-18T00:40:06.114Z,0
2016-09-18T00:41:06.089Z,0
2016-09-18T00:42:06.071Z,0
2016-09-18T00:43:06.342Z,0
2016-09-18T00:44:06.037Z,0
2016-09-18T00:45:06.007Z,0
2016-09-18T00:46:05.988Z,0
2016-09-18T00:47:05.966Z,0
2016-09-18T00:48:05.941Z,0
2016-09-18T00:49:05.928Z,0
2016-09-18T00:50:05.900Z,0
2016-09-18T00:51:06.184Z,0
2016-09-18T00:52:05.857Z,0
2016-09-18T00:53:05.842Z,0
2016-09-18T00:54:05.819Z,0
2016-09-18T00:55:05.803Z,0
2016-09-18T00:56:05.782Z,0
2016-09-18T00:57:05.763Z,0
2016-09-18T00:58:05.739Z,0
2016-09-18T00:59:05.709Z,0
2016-09-18T01:00:05.692Z,0
2016-09-18T01:01:05.670Z,0
2016-09-18T01:02:05.648Z,0
2016-09-18T01:03:05.637Z,0
2016-09-18T01:04:05.611Z,0
2016-09-18T01:05:05.589Z,0
2016-09-18T01:06:05.564Z,0
2016-09-18T01:07:05.855Z,0
2016-09-18T01:08:05.521Z,0
2016-09-18T01:09:05.501Z,0
2016-09-18T01:10:05.482Z,0
2016-09-18T01:11:05.462Z,0
2016-09-18T01:12:05.444Z,0
2016-09-18T01:13:05.419Z,0
2016-09-18T01:14:05.397Z,0
2016-09-18T01:15:05.376Z,0
2016-09-18T01:16:05.359Z,0
2016-09-18T01:17:05.637Z,0
2016-09-18T01:18:05.311Z,0
2016-09-18T01:19:05.292Z,0
2016-09-18T01:20:05.270Z,0
2016-09-18T01:21:05.243Z,0
2016-09-18T01:22:05.228Z,0
2016-09-18T01:23:05.205Z,0
2016-09-18T01:24:05.181Z,0
2016-09-18T01:25:05.170Z,0
2016-09-18T01:26:05.143Z,0
2016-09-18T01:27:05.134Z,0
2016-09-18T01:28:05.097Z,0
2016-09-18T01:29:05.079Z,0
2016-09-18T01:30:05.056Z,0
2016-09-18T01:31:05.032Z,0
2016-09-18T01:32:05.017Z,0
2016-09-18T01:33:04.991Z,0
2016-09-18T01:34:04.975Z,0
2016-09-18T01:35:04.950Z,0
2016-09-18T01:36:04.933Z,0
2016-09-18T01:37:04.900Z,0
2016-09-18T01:38:04.892Z,0
2016-09-18T01:39:04.864Z,0
2016-09-18T01:40:04.847Z,0
2016-09-18T01:41:04.823Z,0
2016-09-18T01:42:04.794Z,0
2016-09-18T01:43:04.776Z,0
2016-09-18T01:44:04.754Z,0
2016-09-18T01:45:04.739Z,0
2016-09-18T01:46:04.712Z,0
2016-09-18T01:47:04.692Z,0
2016-09-18T01:48:04.678Z,0
2016-09-18T01:49:04.649Z,0
2016-09-18T01:50:04.629Z,0
2016-09-18T01:51:04.602Z,0
2016-09-18T01:52:04.588Z,0
2016-09-18T01:53:04.563Z,0
2016-09-18T01:54:04.543Z,0
2016-09-18T01:55:04.522Z,0
2016-09-18T01:56:04.499Z,0
2016-09-18T01:57:04.775Z,0
2016-09-18T01:58:04.463Z,0
2016-09-18T01:59:04.432Z,0
2016-09-18T02:00:04.414Z,0
2016-09-18T02:01:04.393Z,0
2016-09-18T02:02:04.371Z,0
2016-09-18T02:03:04.349Z,0
2016-09-18T02:04:04.324Z,0
2016-09-18T02:05:04.308Z,0
2016-09-18T02:06:04.292Z,0
2016-09-18T02:07:04.267Z,0
2016-09-18T02:08:04.238Z,0
2016-09-18T02:09:04.218Z,0
2016-09-18T02:10:04.196Z,0
2016-09-18T02:11:04.184Z,0
2016-09-18T02:12:04.167Z,0
2016-09-18T02:13:04.136Z,0
2016-09-18T02:14:04.119Z,0
2016-09-18T02:15:04.087Z,0
2016-09-18T02:16:04.073Z,0
2016-09-18T02:17:04.045Z,0
2016-09-18T02:18:04.028Z,0
2016-09-18T02:19:04.007Z,0
2016-09-18T02:20:03.981Z,0
2016-09-18T02:21:03.969Z,0
2016-09-18T02:22:03.935Z,0
2016-09-18T02:23:03.931Z,0
2016-09-18T02:24:03.894Z,0
2016-09-18T02:25:03.874Z,0
2016-09-18T02:26:03.849Z,0
2016-09-18T02:27:03.828Z,0
2016-09-18T02:28:03.813Z,0
2016-09-18T02:29:03.787Z,0
2016-09-18T02:30:03.767Z,0
2016-09-18T02:31:03.749Z,0
2016-09-18T02:32:03.727Z,0
2016-09-18T02:33:03.700Z,0
2016-09-18T02:34:03.677Z,0
2016-09-18T02:35:03.711Z,0
2016-09-18T02:36:03.632Z,0
2016-09-18T02:37:03.616Z,0
2016-09-18T02:38:03.594Z,0
2016-09-18T02:39:03.570Z,0
2016-09-18T02:40:03.551Z,0
2016-09-18T02:41:03.535Z,0
2016-09-18T02:42:03.503Z,0
2016-09-18T02:43:03.488Z,0
2016-09-18T02:44:03.462Z,0
2016-09-18T02:45:03.442Z,0
2016-09-18T02:46:03.421Z,0
2016-09-18T02:47:03.699Z,0
2016-09-18T02:48:03.372Z,0
2016-09-18T02:49:03.361Z,0
2016-09-18T02:50:03.335Z,0
2016-09-18T02:51:03.316Z,0
2016-09-18T02:52:03.288Z,0
2016-09-18T02:53:03.268Z,0
2016-09-18T02:54:03.246Z,0
2016-09-18T02:55:03.516Z,0
2016-09-18T02:56:03.202Z,0
2016-09-18T02:57:03.178Z,0
2016-09-18T02:58:03.157Z,0
2016-09-18T02:59:03.142Z,0
2016-09-18T03:00:03.112Z,0
2016-09-18T03:01:03.097Z,0
2016-09-18T03:02:03.070Z,0
2016-09-18T03:03:03.050Z,0
2016-09-18T03:04:03.032Z,0
2016-09-18T03:05:03.314Z,0
2016-09-18T03:06:02.997Z,0
2016-09-18T03:07:02.976Z,0
2016-09-18T03:08:02.942Z,0
2016-09-18T03:09:02.941Z,0
2016-09-18T03:10:02.923Z,0
2016-09-18T03:11:02.888Z,0
2016-09-18T03:12:02.867Z,0
2016-09-18T03:13:02.846Z,0
2016-09-18T03:14:02.821Z,0
2016-09-18T03:15:02.799Z,0
2016-09-18T03:16:02.782Z,0
2016-09-18T03:17:02.763Z,0
2016-09-18T03:18:02.730Z,0
2016-09-18T03:19:02.721Z,0
2016-09-18T03:20:02.701Z,0
2016-09-18T03:21:02.666Z,0
2016-09-18T03:22:02.647Z,0
2016-09-18T03:23:02.625Z,0
2016-09-18T03:24:02.613Z,0
2016-09-18T03:25:02.587Z,0
2016-09-18T03:26:02.560Z,0
2016-09-18T03:27:02.545Z,0
2016-09-18T03:28:02.524Z,0
2016-09-18T03:29:02.493Z,0
2016-09-18T03:30:02.481Z,0
2016-09-18T03:31:02.452Z,0
2016-09-18T03:32:02.428Z,0
2016-09-18T03:33:02.411Z,0
2016-09-18T03:34:02.390Z,0
2016-09-18T03:35:02.465Z,0
2016-09-18T03:36:02.356Z,0
2016-09-18T03:37:02.317Z,0
2016-09-18T03:38:02.302Z,0
2016-09-18T03:39:02.276Z,0
2016-09-18T03:40:02.261Z,0
2016-09-18T03:41:02.219Z,0
2016-09-18T03:42:02.197Z,0
2016-09-18T03:43:02.184Z,0
2016-09-18T03:44:02.157Z,0
2016-09-18T03:45:02.146Z,0
2016-09-18T03:46:02.409Z,0
2016-09-18T03:47:02.100Z,0
2016-09-18T03:48:02.065Z,0
2016-09-18T03:49:02.052Z,0
2016-09-18T03:50:02.039Z,0
2016-09-18T03:51:02.002Z,0
2016-09-18T03:52:02.288Z,0
2016-09-18T03:53:01.958Z,0
2016-09-18T03:54:01.937Z,0
2016-09-18T03:55:01.938Z,0
2016-09-18T03:56:01.892Z,0
2016-09-18T03:57:01.870Z,0
2016-09-18T03:58:01.847Z,0
2016-09-18T03:59:01.830Z,0
2016-09-18T04:00:01.803Z,0
2016-09-18T04:01:01.780Z,0
2016-09-18T04:02:01.757Z,0
2016-09-18T04:03:01.740Z,0
2016-09-18T04:04:02.017Z,0
2016-09-18T04:05:01.695Z,0
2016-09-18T04:06:01.673Z,0
2016-09-18T04:07:01.647Z,0
2016-09-18T04:08:01.628Z,0
2016-09-18T04:09:01.601Z,0
2016-09-18T04:10:01.584Z,0
2016-09-18T04:11:01.564Z,0
2016-09-18T04:12:01.537Z,0
2016-09-18T04:13:01.519Z,0
2016-09-18T04:14:01.499Z,0
2016-09-18T04:15:01.478Z,0
2016-09-18T04:16:01.456Z,0
2016-09-18T04:17:01.433Z,0
2016-09-18T04:18:01.406Z,0
2016-09-18T04:19:01.388Z,0
2016-09-18T04:20:01.361Z,0
2016-09-18T04:21:01.342Z,0
2016-09-18T04:22:01.319Z,0
2016-09-18T04:23:01.297Z,0
2016-09-18T04:24:01.274Z,0
2016-09-18T04:25:01.259Z,0
2016-09-18T04:26:01.232Z,0
2016-09-18T04:27:01.211Z,0
2016-09-18T04:28:01.186Z,0
2016-09-18T04:29:01.170Z,0
2016-09-18T04:30:01.145Z,0
2016-09-18T04:31:01.133Z,0
2016-09-18T04:32:01.101Z,0
2016-09-18T04:33:01.080Z,0
2016-09-18T04:34:01.061Z,0
2016-09-18T04:35:01.042Z,0
2016-09-18T04:36:01.028Z,0
2016-09-18T04:37:00.999Z,0
2016-09-18T04:38:00.971Z,0
2016-09-18T04:39:00.946Z,0
2016-09-18T04:40:00.932Z,0
2016-09-18T04:41:00.904Z,4
2016-09-18T04:42:00.896Z,4
2016-09-18T04:43:00.866Z,4
2016-09-18T04:44:00.841Z,4
2016-09-18T04:45:00.821Z,4
2016-09-18T04:46:00.797Z,4
2016-09-18T04:47:00.775Z,4
2016-09-18T04:48:00.751Z,4
2016-09-18T04:49:01.029Z,8
2016-09-18T04:50:00.705Z,8
2016-09-18T04:51:00.687Z,8
2016-09-18T04:52:00.663Z,12
2016-09-18T04:53:00.646Z,8
2016-09-18T04:54:00.628Z,16
2016-09-18T04:55:00.600Z,16
2016-09-18T04:56:00.579Z,20
2016-09-18T04:57:00.558Z,20
2016-09-18T04:58:00.541Z,24
2016-09-18T04:59:00.511Z,24
2016-09-18T05:00:00.489Z,36
2016-09-18T05:01:00.470Z,44
2016-09-18T05:02:00.445Z,52
2016-09-18T05:03:00.724Z,64
2016-09-18T05:04:00.405Z,76
2016-09-18T05:05:00.385Z,76
2016-09-18T05:06:00.356Z,80
2016-09-18T05:07:00.336Z,84
2016-09-18T05:08:00.321Z,84
2016-09-18T05:09:00.286Z,84
2016-09-18T05:10:00.274Z,96
2016-09-18T05:11:00.250Z,100
2016-09-18T05:12:00.225Z,84
2016-09-18T05:13:00.219Z,80
2016-09-18T05:14:00.193Z,80
2016-09-18T05:15:00.165Z,80
2016-09-18T05:16:00.137Z,88
2016-09-18T05:17:00.123Z,96
2016-09-18T05:18:00.098Z,100
2016-09-18T05:19:00.371Z,108
2016-09-18T05:20:00.053Z,128
2016-09-18T05:21:00.041Z,156
2016-09-18T05:22:00.333Z,168
2016-09-18T05:22:59.985Z,180
2016-09-18T05:23:59.966Z,180
2016-09-18T05:24:59.945Z,208
2016-09-18T05:25:59.923Z,212
2016-09-18T05:26:59.907Z,208
2016-09-18T05:27:59.879Z,220
2016-09-18T05:28:59.860Z,232
2016-09-18T05:29:59.832Z,260
2016-09-18T05:30:59.806Z,284
2016-09-18T05:31:59.791Z,296
2016-09-18T05:32:59.767Z,292
2016-09-18T05:33:59.749Z,308
2016-09-18T05:34:59.731Z,396
2016-09-18T05:35:59.708Z,460
2016-09-18T05:36:59.679Z,428
2016-09-18T05:37:59.657Z,436
2016-09-18T05:38:59.638Z,500
2016-09-18T05:39:59.614Z,512
2016-09-18T05:40:59.592Z,532
2016-09-18T05:41:59.572Z,552
2016-09-18T05:42:59.547Z,484
2016-09-18T05:43:59.529Z,516
2016-09-18T05:44:59.504Z,552
2016-09-18T05:45:59.488Z,544
2016-09-18T05:46:59.461Z,544
2016-09-18T05:47:59.439Z,544
2016-09-18T05:48:59.420Z,552
2016-09-18T05:49:59.394Z,544
2016-09-18T05:50:59.384Z,528
2016-09-18T05:51:59.355Z,488
2016-09-18T05:52:59.334Z,460
2016-09-18T05:53:59.307Z,512
2016-09-18T05:54:59.284Z,492
2016-09-18T05:55:59.266Z,456
2016-09-18T05:56:59.243Z,496
2016-09-18T05:57:59.224Z,504
2016-09-18T05:58:59.203Z,576
2016-09-18T05:59:59.184Z,568
2016-09-18T06:00:59.157Z,556
2016-09-18T06:01:59.144Z,464
2016-09-18T06:02:59.114Z,480
2016-09-18T06:03:59.094Z,528
2016-09-18T06:04:59.087Z,576
2016-09-18T06:05:59.049Z,620
2016-09-18T06:06:59.027Z,676
2016-09-18T06:07:59.005Z,696
2016-09-18T06:08:58.984Z,624
2016-09-18T06:09:58.963Z,616
2016-09-18T06:10:58.940Z,580
2016-09-18T06:11:58.919Z,664
2016-09-18T06:12:58.893Z,572
2016-09-18T06:13:58.882Z,524
2016-09-18T06:14:58.852Z,524
2016-09-18T06:15:58.829Z,532
2016-09-18T06:16:58.808Z,560
2016-09-18T06:17:58.784Z,640
2016-09-18T06:18:58.765Z,792
2016-09-18T06:19:58.752Z,916
2016-09-18T06:20:58.722Z,1044
2016-09-18T06:21:58.704Z,1048
2016-09-18T06:22:58.677Z,960
2016-09-18T06:23:58.660Z,920
2016-09-18T06:24:58.634Z,904
2016-09-18T06:25:58.616Z,876
2016-09-18T06:26:58.606Z,960
2016-09-18T06:27:58.577Z,1068
2016-09-18T06:28:58.551Z,1128
2016-09-18T06:29:58.527Z,1176
2016-09-18T06:30:58.518Z,1252
2016-09-18T06:31:58.480Z,1424
2016-09-18T06:32:58.461Z,1676
2016-09-18T06:33:58.439Z,1748
2016-09-18T06:34:58.423Z,1864
2016-09-18T06:35:58.396Z,2108
2016-09-18T06:36:58.378Z,2204
2016-09-18T06:37:58.354Z,2356
2016-09-18T06:38:58.333Z,2636
2016-09-18T06:39:58.323Z,2912
2016-09-18T06:40:58.293Z,2856
2016-09-18T06:41:58.264Z,2832
2016-09-18T06:42:58.243Z,2932
2016-09-18T06:43:58.223Z,3140
2016-09-18T06:44:58.206Z,3372
2016-09-18T06:45:58.181Z,3232
2016-09-18T06:46:58.154Z,3120
2016-09-18T06:47:58.439Z,3268
2016-09-18T06:48:58.111Z,3196
2016-09-18T06:49:58.095Z,3256
2016-09-18T06:50:58.072Z,3476
2016-09-18T06:51:58.051Z,3692
2016-09-18T06:52:58.034Z,3976
2016-09-18T06:53:58.011Z,3908
2016-09-18T06:54:58.298Z,3884
2016-09-18T06:55:57.972Z,3412
2016-09-18T06:56:57.948Z,3120
2016-09-18T06:57:57.935Z,3096
2016-09-18T06:58:57.915Z,3028
2016-09-18T06:59:57.882Z,3176
2016-09-18T07:00:57.862Z,2940
2016-09-18T07:01:57.837Z,2828
2016-09-18T07:02:57.822Z,2668
2016-09-18T07:03:57.799Z,2576
2016-09-18T07:04:57.775Z,2648
2016-09-18T07:05:57.754Z,3024
2016-09-18T07:06:57.735Z,2900
2016-09-18T07:07:57.714Z,2672
2016-09-18T07:08:57.693Z,2936
2016-09-18T07:09:57.671Z,3100
2016-09-18T07:10:57.645Z,2304
2016-09-18T07:11:57.625Z,1960
2016-09-18T07:12:57.610Z,2104
2016-09-18T07:13:57.588Z,2008
2016-09-18T07:14:57.565Z,1752
2016-09-18T07:15:57.545Z,1772
2016-09-18T07:16:57.526Z,1828
2016-09-18T07:17:57.500Z,1696
2016-09-18T07:18:57.478Z,1620
2016-09-18T07:19:57.460Z,1876
2016-09-18T07:20:57.438Z,1928
2016-09-18T07:21:57.419Z,1936
2016-09-18T07:22:57.397Z,1996
2016-09-18T07:23:57.724Z,1988
2016-09-18T07:24:57.354Z,2088
2016-09-18T07:25:57.335Z,2752
2016-09-18T07:26:57.309Z,3568
2016-09-18T07:27:57.284Z,2936
2016-09-18T07:28:57.267Z,2468
2016-09-18T07:29:57.541Z,2276
2016-09-18T07:30:57.225Z,2116
2016-09-18T07:31:57.203Z,1948
2016-09-18T07:32:57.183Z,1968
2016-09-18T07:33:57.158Z,2236
2016-09-18T07:34:57.136Z,2456
2016-09-18T07:35:57.124Z,2700
2016-09-18T07:36:57.097Z,3988
2016-09-18T07:37:57.079Z,4892
2016-09-18T07:38:57.053Z,3680
2016-09-18T07:39:57.031Z,3024
2016-09-18T07:40:57.010Z,2548
2016-09-18T07:41:56.987Z,1916
2016-09-18T07:42:56.969Z,1528
2016-09-18T07:43:56.949Z,1384
2016-09-18T07:44:56.926Z,1416
2016-09-18T07:45:56.906Z,1420
2016-09-18T07:46:56.884Z,1420
2016-09-18T07:47:56.864Z,1648
2016-09-18T07:48:56.839Z,1792
2016-09-18T07:49:56.822Z,1820
2016-09-18T07:50:56.800Z,1852
2016-09-18T07:51:56.785Z,1972
2016-09-18T07:52:56.759Z,2208
2016-09-18T07:53:56.737Z,2764
2016-09-18T07:54:56.709Z,3064
2016-09-18T07:55:56.693Z,3048
2016-09-18T07:56:56.670Z,3408
2016-09-18T07:57:56.648Z,4180
2016-09-18T07:58:56.627Z,5160
2016-09-18T07:59:56.605Z,6020
2016-09-18T08:00:56.583Z,6664
2016-09-18T08:01:56.574Z,6976
2016-09-18T08:02:56.540Z,6964
2016-09-18T08:03:56.526Z,7112
2016-09-18T08:04:56.499Z,7048
2016-09-18T08:05:56.480Z,6776
2016-09-18T08:06:56.455Z,7084
2016-09-18T08:07:56.433Z,6744
2016-09-18T08:08:56.417Z,7000
2016-09-18T08:09:56.393Z,7732
2016-09-18T08:10:56.368Z,7944
2016-09-18T08:11:56.349Z,8232
2016-09-18T08:12:56.327Z,8960
2016-09-18T08:13:56.308Z,8600
2016-09-18T08:14:56.285Z,8512
2016-09-18T08:15:56.262Z,8584
2016-09-18T08:16:56.247Z,8700
2016-09-18T08:17:56.229Z,9052
2016-09-18T08:18:56.212Z,8892
2016-09-18T08:19:56.185Z,8648
2016-09-18T08:20:56.164Z,8376
2016-09-18T08:21:56.140Z,7768
2016-09-18T08:22:56.132Z,8088
2016-09-18T08:23:56.107Z,9056
2016-09-18T08:24:56.098Z,9508
2016-09-18T08:25:56.064Z,8660
2016-09-18T08:26:56.038Z,7140
2016-09-18T08:27:56.030Z,5980
2016-09-18T08:28:56.007Z,6072
2016-09-18T08:29:55.975Z,6440
2016-09-18T08:30:55.955Z,6896
2016-09-18T08:31:55.935Z,8244
2016-09-18T08:32:55.915Z,7836
2016-09-18T08:33:55.901Z,9080
2016-09-18T08:34:55.875Z,8860
2016-09-18T08:35:55.852Z,8656
2016-09-18T08:36:55.843Z,8272
2016-09-18T08:37:55.823Z,7596
2016-09-18T08:38:55.793Z,9656
2016-09-18T08:39:55.773Z,10620
2016-09-18T08:40:55.751Z,11480
2016-09-18T08:41:55.733Z,10892
2016-09-18T08:42:55.716Z,10620
2016-09-18T08:43:55.694Z,10996
2016-09-18T08:44:55.670Z,9696
2016-09-18T08:45:55.649Z,9616
2016-09-18T08:46:55.633Z,9360
2016-09-18T08:47:55.607Z,8696
2016-09-18T08:48:55.585Z,8896
2016-09-18T08:49:55.569Z,9572
2016-09-18T08:50:55.554Z,9380
2016-09-18T08:51:55.534Z,8320
2016-09-18T08:52:55.508Z,7544
2016-09-18T08:53:55.487Z,6516
2016-09-18T08:54:55.472Z,6324
2016-09-18T08:55:55.449Z,6964
2016-09-18T08:56:55.425Z,7704
2016-09-18T08:57:55.410Z,8888
2016-09-18T08:58:55.386Z,8772
2016-09-18T08:59:55.366Z,8268
2016-09-18T09:00:55.359Z,9508
2016-09-18T09:01:55.335Z,10564
2016-09-18T09:02:55.312Z,9556
2016-09-18T09:03:55.586Z,9156
2016-09-18T09:04:55.269Z,9520
2016-09-18T09:05:55.245Z,11736
2016-09-18T09:06:55.231Z,10976
2016-09-18T09:07:55.205Z,8944
2016-09-18T09:08:55.187Z,9552
2016-09-18T09:09:55.166Z,9956
2016-09-18T09:10:55.161Z,10864
2016-09-18T09:11:55.134Z,10740
2016-09-18T09:12:55.107Z,10488
2016-09-18T09:13:55.106Z,12004
2016-09-18T09:14:55.066Z,12796
2016-09-18T09:15:55.047Z,14180
2016-09-18T09:16:55.025Z,13524
2016-09-18T09:17:55.011Z,12548
2016-09-18T09:18:54.997Z,13076
2016-09-18T09:19:54.974Z,14700
2016-09-18T09:20:54.957Z,14272
2016-09-18T09:21:54.935Z,13664
2016-09-18T09:22:54.908Z,14228
2016-09-18T09:23:54.891Z,13756
2016-09-18T09:24:54.877Z,15472
2016-09-18T09:25:54.849Z,17400
2016-09-18T09:26:55.123Z,17528
2016-09-18T09:27:54.820Z,19424
2016-09-18T09:28:54.791Z,22656
2016-09-18T09:29:54.771Z,25024
2016-09-18T09:30:54.751Z,22656
2016-09-18T09:31:54.737Z,20320
2016-09-18T09:32:54.716Z,21024
2016-09-18T09:33:54.694Z,21120
2016-09-18T09:34:54.677Z,21024
2016-09-18T09:35:54.660Z,21504
2016-09-18T09:36:54.640Z,23168
2016-09-18T09:37:54.621Z,23488
2016-09-18T09:38:54.602Z,23648
2016-09-18T09:39:54.582Z,24352
2016-09-18T09:40:54.567Z,23456
2016-09-18T09:41:54.559Z,23136
2016-09-18T09:42:54.534Z,27072
2016-09-18T09:43:54.521Z,30560
2016-09-18T09:44:54.495Z,29216
2016-09-18T09:45:54.479Z,28448
2016-09-18T09:46:54.459Z,27040
2016-09-18T09:47:54.449Z,26688
2016-09-18T09:48:54.428Z,26176
2016-09-18T09:49:54.406Z,22784
2016-09-18T09:50:54.390Z,19360
2016-09-18T09:51:54.370Z,17728
2016-09-18T09:52:54.354Z,19360
2016-09-18T09:53:54.342Z,18784
2016-09-18T09:54:54.321Z,18176
2016-09-18T09:55:54.315Z,20448
2016-09-18T09:56:54.284Z,21600
2016-09-18T09:57:54.275Z,20384
2016-09-18T09:58:54.252Z,20192
2016-09-18T09:59:54.241Z,21536
2016-09-18T10:00:54.235Z,20896
2016-09-18T10:01:54.207Z,21600
2016-09-18T10:02:54.189Z,24448
2016-09-18T10:03:54.178Z,25120
2016-09-18T10:04:54.163Z,23328
2016-09-18T10:05:54.141Z,22080
2016-09-18T10:06:54.119Z,22528
2016-09-18T10:07:54.115Z,24512
2016-09-18T10:08:54.086Z,23616
2016-09-18T10:09:54.064Z,25248
2016-09-18T10:10:54.052Z,23200
2016-09-18T10:11:54.041Z,20832
2016-09-18T10:12:54.016Z,21664
2016-09-18T10:13:54.001Z,20992
2016-09-18T10:14:53.994Z,20288
2016-09-18T10:15:53.972Z,22848
2016-09-18T10:16:53.953Z,27296
2016-09-18T10:17:53.956Z,27200
2016-09-18T10:18:53.917Z,23808
2016-09-18T10:19:53.907Z,19456
2016-09-18T10:20:53.888Z,17984
2016-09-18T10:21:53.873Z,19552
2016-09-18T10:22:53.858Z,17380
2016-09-18T10:23:53.841Z,16520
2016-09-18T10:24:53.820Z,17020
2016-09-18T10:25:53.811Z,17696
2016-09-18T10:26:53.785Z,18688
2016-09-18T10:27:53.775Z,21856
2016-09-18T10:28:53.757Z,24832
2016-09-18T10:29:53.740Z,21664
2016-09-18T10:30:53.732Z,18496
2016-09-18T10:31:53.703Z,16932
2016-09-18T10:32:53.690Z,16368
2016-09-18T10:33:53.684Z,15576
2016-09-18T10:34:53.661Z,14416
2016-09-18T10:35:53.642Z,13032
2016-09-18T10:36:53.625Z,13196
2016-09-18T10:37:53.607Z,14064
2016-09-18T10:38:53.589Z,14928
2016-09-18T10:39:53.570Z,15740
2016-09-18T10:40:53.557Z,16348
2016-09-18T10:41:53.703Z,16608
2016-09-18T10:42:53.525Z,17016
2016-09-18T10:43:53.499Z,16844
2016-09-18T10:44:53.488Z,17080
2016-09-18T10:45:53.468Z,18432
2016-09-18T10:46:53.457Z,20480
2016-09-18T10:47:53.737Z,22720
2016-09-18T10:48:53.416Z,24704
2016-09-18T10:49:53.401Z,27008
2016-09-18T10:50:53.390Z,29312
2016-09-18T10:51:53.366Z,29696
2016-09-18T10:52:53.355Z,27968
2016-09-18T10:53:53.332Z,25952
2016-09-18T10:54:53.311Z,25888
2016-09-18T10:55:53.302Z,26304
2016-09-18T10:56:53.281Z,25376
2016-09-18T10:57:53.267Z,23072
2016-09-18T10:58:53.244Z,22688
2016-09-18T10:59:53.240Z,22720
2016-09-18T11:00:53.212Z,20256
2016-09-18T11:01:53.206Z,18144
2016-09-18T11:02:53.181Z,18560
2016-09-18T11:03:53.165Z,19328
2016-09-18T11:04:53.149Z,16608
2016-09-18T11:05:53.432Z,13832
2016-09-18T11:06:53.118Z,13836
2016-09-18T11:07:53.102Z,15064
2016-09-18T11:08:53.087Z,15364
2016-09-18T11:09:53.078Z,16208
2016-09-18T11:10:53.058Z,15912
2016-09-18T11:11:53.043Z,15452
2016-09-18T11:12:53.024Z,15400
2016-09-18T11:13:53.013Z,16368
2016-09-18T11:14:52.996Z,15052
2016-09-18T11:15:52.967Z,15536
2016-09-18T11:16:52.959Z,19136
2016-09-18T11:17:52.936Z,19744
2016-09-18T11:18:52.923Z,19168
2016-09-18T11:19:52.902Z,21184
2016-09-18T11:20:52.889Z,22240
2016-09-18T11:21:52.871Z,20928
2016-09-18T11:22:52.854Z,19552
2016-09-18T11:23:52.842Z,18784
2016-09-18T11:24:52.823Z,18336
2016-09-18T11:25:52.813Z,17920
2016-09-18T11:26:52.793Z,17856
2016-09-18T11:27:52.778Z,17856
2016-09-18T11:28:52.764Z,19680
2016-09-18T11:29:52.747Z,23008
2016-09-18T11:30:52.731Z,26048
2016-09-18T11:31:52.711Z,28992
2016-09-18T11:32:52.694Z,29920
2016-09-18T11:33:52.677Z,30048
2016-09-18T11:34:52.665Z,29952
2016-09-18T11:35:52.642Z,29728
2016-09-18T11:36:52.633Z,29504
2016-09-18T11:37:52.615Z,28096
2016-09-18T11:38:52.600Z,28704
2016-09-18T11:39:52.580Z,26528
2016-09-18T11:40:52.572Z,22304
2016-09-18T11:41:52.552Z,19392
2016-09-18T11:42:52.537Z,16716
2016-09-18T11:43:52.537Z,13996
2016-09-18T11:44:52.509Z,11428
2016-09-18T11:45:52.489Z,10392
2016-09-18T11:46:52.483Z,10384
2016-09-18T11:47:52.469Z,10932
2016-09-18T11:48:52.440Z,11484
2016-09-18T11:49:52.427Z,11608
2016-09-18T11:50:52.410Z,11624
2016-09-18T11:51:52.406Z,12084
2016-09-18T11:52:52.380Z,12536
2016-09-18T11:53:52.367Z,13208
2016-09-18T11:54:52.349Z,13728
2016-09-18T11:55:52.341Z,14212
2016-09-18T11:56:52.315Z,15076
2016-09-18T11:57:52.304Z,15832
2016-09-18T11:58:52.287Z,15708
2016-09-18T11:59:52.303Z,15188
2016-09-18T12:00:52.250Z,16188
2016-09-18T12:01:52.239Z,15828
2016-09-18T12:02:52.218Z,16844
2016-09-18T12:03:52.201Z,17908
2016-09-18T12:04:52.182Z,17836
2016-09-18T12:05:52.166Z,16796
2016-09-18T12:06:52.150Z,16648
2016-09-18T12:07:52.146Z,18944
2016-09-18T12:08:52.117Z,22432
2016-09-18T12:09:52.106Z,22720
2016-09-18T12:10:52.086Z,22304
2016-09-18T12:16:45.011Z,19904
2016-09-18T12:17:15.147Z,18880
2016-09-18T12:18:15.132Z,16860
2016-09-18T12:19:15.114Z,16836
2016-09-18T12:20:15.101Z,16924
2016-09-18T12:21:15.086Z,18280
2016-09-18T12:22:15.070Z,20000
2016-09-18T12:23:15.056Z,21888
2016-09-18T12:24:15.040Z,22016
2016-09-18T12:25:15.022Z,23776
2016-09-18T12:26:15.005Z,24288
2016-09-18T12:27:14.985Z,24736
2016-09-18T12:28:14.975Z,24608
2016-09-18T12:29:14.957Z,22976
2016-09-18T12:30:14.942Z,22368
2016-09-18T12:31:14.932Z,22528
2016-09-18T12:32:14.916Z,21536
2016-09-18T12:33:14.895Z,19744
2016-09-18T12:34:14.883Z,18624
2016-09-18T12:35:14.867Z,19104
2016-09-18T12:36:14.850Z,19296
2016-09-18T12:37:14.835Z,20032
2016-09-18T12:38:14.834Z,21568
2016-09-18T12:39:14.804Z,21920
2016-09-18T12:40:14.806Z,21600
2016-09-18T12:41:14.769Z,18816
2016-09-18T12:42:14.765Z,16360
2016-09-18T12:43:14.740Z,13876
2016-09-18T12:44:14.733Z,14184
2016-09-18T12:45:14.718Z,15412
2016-09-18T12:46:14.701Z,17156
2016-09-18T12:47:14.688Z,17884
2016-09-18T12:48:14.667Z,17380
2016-09-18T12:49:14.659Z,15480
2016-09-18T12:50:14.653Z,13852
2016-09-18T12:51:14.620Z,15260
2016-09-18T12:52:14.606Z,17752
2016-09-18T12:53:14.592Z,20160
2016-09-18T12:54:14.574Z,19040
2016-09-18T12:55:14.560Z,17056
2016-09-18T12:56:14.537Z,15064
2016-09-18T12:57:14.532Z,15240
2016-09-18T12:58:14.509Z,15464
2016-09-18T12:59:14.501Z,17452
2016-09-18T13:00:14.491Z,18656
2016-09-18T13:01:14.464Z,19648
2016-09-18T13:02:14.448Z,21280
2016-09-18T13:03:14.435Z,22688
2016-09-18T13:04:14.417Z,23232
2016-09-18T13:05:14.403Z,21760
2016-09-18T13:06:14.391Z,21440
2016-09-18T13:07:14.369Z,19968
2016-09-18T13:08:14.356Z,18816
2016-09-18T13:09:14.336Z,18240
2016-09-18T13:10:14.322Z,18272
2016-09-18T13:11:14.306Z,17856
2016-09-18T13:12:14.292Z,17888
2016-09-18T13:13:14.273Z,18176
2016-09-18T13:14:14.264Z,19232
2016-09-18T13:15:14.242Z,20032
2016-09-18T13:16:14.237Z,20320
2016-09-18T13:17:14.220Z,20128
2016-09-18T13:18:14.200Z,19360
2016-09-18T13:19:14.193Z,17340
2016-09-18T13:20:14.168Z,15832
2016-09-18T13:21:14.158Z,15592
2016-09-18T13:22:14.145Z,14072
2016-09-18T13:23:14.126Z,15764
2016-09-18T13:24:14.412Z,19008
2016-09-18T13:25:14.090Z,21376
2016-09-18T13:26:14.074Z,22688
2016-09-18T13:27:14.060Z,22656
2016-09-18T13:28:14.042Z,21408
2016-09-18T13:29:14.031Z,19680
2016-09-18T13:30:14.009Z,17984
2016-09-18T13:31:13.998Z,15672
2016-09-18T13:32:13.979Z,15596
2016-09-18T13:33:13.968Z,17076
2016-09-18T13:34:13.950Z,18944
2016-09-18T13:35:13.939Z,20128
2016-09-18T13:36:13.971Z,20480
2016-09-18T13:37:13.904Z,20864
2016-09-18T13:38:13.895Z,20832
2016-09-18T13:39:13.875Z,20320
2016-09-18T13:40:13.862Z,19392
2016-09-18T13:41:13.842Z,18240
2016-09-18T13:42:13.829Z,16672
2016-09-18T13:43:13.813Z,15656
2016-09-18T13:44:13.794Z,14132
2016-09-18T13:45:13.783Z,12576
2016-09-18T13:46:13.765Z,11212